AUA102 LOWI-LOWW
Flight info
| Callsign | AUA102 |
|---|---|
| Flight time | 0h 46m |
| Altitude | 27000 |
| Route | RTT DCT NEMAL NEMAL2W |
| Aircraft | A320/M-SDE3FGHIRWY/LB1 |
Departure
| Time | 2026-04-25 13:35 |
|---|---|
| Airport | Innsbruck Airport (LOWI) |
Arrival
| Time | 2026-04-25 14:22 |
|---|---|
| Airport | Vienna International Airport (LOWW) |
| Time | Latitude | Longitude | Altitude | Speed | Heading |
|---|---|---|---|---|---|
| 2026-04-25 13:25 | 47.25816 | 11.34989 | 1907 ft | 0 kts | 171° |
| 2026-04-25 13:29 | 47.25830 | 11.34986 | 1892 ft | 2 kts | 171° |
| 2026-04-25 13:29 | 47.25847 | 11.34983 | 1897 ft | 2 kts | 155° |
| 2026-04-25 13:30 | 47.25859 | 11.34965 | 1904 ft | 0 kts | 85° |
| 2026-04-25 13:31 | 47.25860 | 11.34989 | 1901 ft | 6 kts | 85° |
| 2026-04-25 13:31 | 47.25865 | 11.35079 | 1894 ft | 12 kts | 85° |
| 2026-04-25 13:31 | 47.25892 | 11.35228 | 1904 ft | 18 kts | 70° |
| 2026-04-25 13:31 | 47.26001 | 11.35271 | 1907 ft | 18 kts | 353° |
| 2026-04-25 13:32 | 47.26111 | 11.35202 | 1904 ft | 16 kts | 280° |
| 2026-04-25 13:32 | 47.26088 | 11.35034 | 1905 ft | 17 kts | 261° |
| 2026-04-25 13:32 | 47.26070 | 11.34854 | 1901 ft | 18 kts | 261° |
| 2026-04-25 13:32 | 47.26050 | 11.34656 | 1900 ft | 20 kts | 261° |
| 2026-04-25 13:33 | 47.26029 | 11.34447 | 1906 ft | 21 kts | 262° |
| 2026-04-25 13:33 | 47.26007 | 11.34229 | 1896 ft | 22 kts | 262° |
| 2026-04-25 13:33 | 47.25983 | 11.34001 | 1903 ft | 22 kts | 259° |
| 2026-04-25 13:33 | 47.25964 | 11.33850 | 1903 ft | 23 kts | 260° |
| 2026-04-25 13:34 | 47.25928 | 11.33527 | 1907 ft | 25 kts | 262° |
| 2026-04-25 13:34 | 47.25907 | 11.33359 | 1899 ft | 26 kts | 257° |
| 2026-04-25 13:34 | 47.25845 | 11.33065 | 1897 ft | 21 kts | 322° |
| 2026-04-25 13:34 | 47.25889 | 11.33172 | 1902 ft | 15 kts | 80° |
| 2026-04-25 13:35 | 47.25924 | 11.33494 | 1907 ft | 67 kts | 81° |
| 2026-04-25 13:35 | 47.25994 | 11.34126 | 1894 ft | 117 kts | 80° |
| 2026-04-25 13:35 | 47.26163 | 11.35631 | 1983 ft | 170 kts | 78° |
| 2026-04-25 13:35 | 47.26452 | 11.37953 | 2974 ft | 176 kts | 77° |
| 2026-04-25 13:36 | 47.26613 | 11.39175 | 3500 ft | 186 kts | 77° |
| 2026-04-25 13:36 | 47.26863 | 11.41083 | 4083 ft | 193 kts | 77° |
| 2026-04-25 13:36 | 47.27120 | 11.43057 | 4664 ft | 198 kts | 77° |
| 2026-04-25 13:36 | 47.27418 | 11.45050 | 5248 ft | 200 kts | 72° |
| 2026-04-25 13:37 | 47.27785 | 11.47007 | 5871 ft | 201 kts | 72° |
| 2026-04-25 13:37 | 47.28165 | 11.49000 | 6497 ft | 202 kts | 73° |
| 2026-04-25 13:37 | 47.28550 | 11.51003 | 7074 ft | 204 kts | 72° |
| 2026-04-25 13:37 | 47.28940 | 11.53032 | 7630 ft | 208 kts | 71° |
| 2026-04-25 13:38 | 47.29332 | 11.55096 | 8186 ft | 211 kts | 73° |
| 2026-04-25 13:38 | 47.29728 | 11.57183 | 8753 ft | 213 kts | 72° |
| 2026-04-25 13:38 | 47.30130 | 11.59302 | 9295 ft | 216 kts | 72° |
| 2026-04-25 13:38 | 47.30538 | 11.61459 | 9837 ft | 220 kts | 73° |
| 2026-04-25 13:39 | 47.30809 | 11.62902 | 10210 ft | 221 kts | 73° |
| 2026-04-25 13:39 | 47.31594 | 11.65696 | 10864 ft | 224 kts | 54° |
| 2026-04-25 13:39 | 47.32530 | 11.67668 | 11028 ft | 246 kts | 52° |
| 2026-04-25 13:39 | 47.33571 | 11.69841 | 11202 ft | 272 kts | 53° |
| 2026-04-25 13:40 | 47.34706 | 11.72219 | 11472 ft | 295 kts | 53° |
| 2026-04-25 13:40 | 47.35914 | 11.74765 | 11700 ft | 319 kts | 53° |
| 2026-04-25 13:40 | 47.37227 | 11.77540 | 11952 ft | 341 kts | 54° |
| 2026-04-25 13:40 | 47.38602 | 11.80450 | 12522 ft | 350 kts | 53° |
| 2026-04-25 13:41 | 47.39912 | 11.83510 | 13199 ft | 357 kts | 63° |
| 2026-04-25 13:41 | 47.40943 | 11.86873 | 13878 ft | 362 kts | 64° |
| 2026-04-25 13:41 | 47.41977 | 11.90291 | 14501 ft | 367 kts | 64° |
| 2026-04-25 13:41 | 47.43024 | 11.93751 | 15146 ft | 371 kts | 64° |
| 2026-04-25 13:42 | 47.44101 | 11.97241 | 15759 ft | 375 kts | 63° |
| 2026-04-25 13:42 | 47.45219 | 12.00743 | 16366 ft | 379 kts | 63° |
| 2026-04-25 13:42 | 47.46366 | 12.04279 | 16972 ft | 383 kts | 63° |
| 2026-04-25 13:42 | 47.47528 | 12.07849 | 17573 ft | 387 kts | 63° |
| 2026-04-25 13:43 | 47.48699 | 12.11454 | 18172 ft | 391 kts | 63° |
| 2026-04-25 13:43 | 47.49881 | 12.15102 | 18697 ft | 395 kts | 63° |
| 2026-04-25 13:43 | 47.51063 | 12.18779 | 19200 ft | 398 kts | 63° |
| 2026-04-25 13:43 | 47.52248 | 12.22499 | 19715 ft | 401 kts | 63° |
| 2026-04-25 13:44 | 47.53435 | 12.26244 | 20254 ft | 404 kts | 63° |
| 2026-04-25 13:44 | 47.54630 | 12.30023 | 20791 ft | 407 kts | 64° |
| 2026-04-25 13:44 | 47.55819 | 12.33787 | 21315 ft | 410 kts | 64° |
| 2026-04-25 13:44 | 47.57050 | 12.37677 | 21895 ft | 413 kts | 64° |
| 2026-04-25 13:45 | 47.57861 | 12.40237 | 22242 ft | 415 kts | 64° |
| 2026-04-25 13:45 | 47.59492 | 12.45394 | 22919 ft | 420 kts | 64° |
| 2026-04-25 13:45 | 47.60752 | 12.49381 | 23445 ft | 423 kts | 64° |
| 2026-04-25 13:45 | 47.61987 | 12.53293 | 23905 ft | 426 kts | 64° |
| 2026-04-25 13:46 | 47.63244 | 12.57282 | 24317 ft | 429 kts | 64° |
| 2026-04-25 13:46 | 47.64510 | 12.61311 | 24703 ft | 432 kts | 64° |
| 2026-04-25 13:46 | 47.65781 | 12.65369 | 25087 ft | 435 kts | 64° |
| 2026-04-25 13:46 | 47.67058 | 12.69452 | 25459 ft | 438 kts | 64° |
| 2026-04-25 13:47 | 47.68344 | 12.73564 | 25834 ft | 441 kts | 64° |
| 2026-04-25 13:47 | 47.69643 | 12.77712 | 26145 ft | 444 kts | 64° |
| 2026-04-25 13:47 | 47.70946 | 12.81884 | 26501 ft | 447 kts | 64° |
| 2026-04-25 13:47 | 47.72255 | 12.86087 | 26859 ft | 450 kts | 64° |
| 2026-04-25 13:48 | 47.73570 | 12.90323 | 27027 ft | 451 kts | 64° |
| 2026-04-25 13:48 | 47.74862 | 12.94496 | 27059 ft | 437 kts | 64° |
| 2026-04-25 13:48 | 47.76124 | 12.98575 | 27056 ft | 432 kts | 64° |
| 2026-04-25 13:48 | 47.77372 | 13.02625 | 27057 ft | 430 kts | 64° |
| 2026-04-25 13:49 | 47.78618 | 13.06667 | 27056 ft | 430 kts | 64° |
| 2026-04-25 13:49 | 47.79865 | 13.10711 | 27058 ft | 430 kts | 64° |
| 2026-04-25 13:49 | 47.81110 | 13.14744 | 27073 ft | 429 kts | 64° |
| 2026-04-25 13:49 | 47.82353 | 13.18789 | 27072 ft | 430 kts | 64° |
| 2026-04-25 13:50 | 47.83589 | 13.22840 | 27074 ft | 431 kts | 64° |
| 2026-04-25 13:50 | 47.84831 | 13.26904 | 27073 ft | 431 kts | 64° |
| 2026-04-25 13:50 | 47.86070 | 13.30958 | 27073 ft | 431 kts | 64° |
| 2026-04-25 13:50 | 47.87293 | 13.34966 | 27080 ft | 431 kts | 64° |
| 2026-04-25 13:51 | 47.88530 | 13.39031 | 27070 ft | 431 kts | 64° |
| 2026-04-25 13:51 | 47.89765 | 13.43095 | 27064 ft | 431 kts | 64° |
| 2026-04-25 13:51 | 47.90893 | 13.47232 | 27060 ft | 432 kts | 72° |
| 2026-04-25 13:51 | 47.91581 | 13.51587 | 27057 ft | 432 kts | 82° |
| 2026-04-25 13:52 | 47.91790 | 13.56052 | 27056 ft | 432 kts | 91° |
| 2026-04-25 13:52 | 47.91763 | 13.60536 | 27055 ft | 433 kts | 91° |
| 2026-04-25 13:52 | 47.91740 | 13.65019 | 27055 ft | 433 kts | 91° |
| 2026-04-25 13:52 | 47.91720 | 13.69503 | 27053 ft | 433 kts | 91° |
| 2026-04-25 13:53 | 47.91699 | 13.74005 | 27053 ft | 433 kts | 91° |
| 2026-04-25 13:53 | 47.91676 | 13.78495 | 27051 ft | 433 kts | 91° |
| 2026-04-25 13:53 | 47.91651 | 13.82985 | 27053 ft | 434 kts | 91° |
| 2026-04-25 13:53 | 47.91624 | 13.87491 | 27050 ft | 434 kts | 91° |
| 2026-04-25 13:54 | 47.91593 | 13.91991 | 27053 ft | 434 kts | 91° |
| 2026-04-25 13:54 | 47.91562 | 13.96493 | 27053 ft | 434 kts | 91° |
| 2026-04-25 13:54 | 47.91529 | 14.00992 | 27055 ft | 434 kts | 91° |
| 2026-04-25 13:54 | 47.91495 | 14.05488 | 27051 ft | 434 kts | 91° |
| 2026-04-25 13:55 | 47.91459 | 14.09989 | 27046 ft | 434 kts | 91° |
| 2026-04-25 13:55 | 47.91417 | 14.14488 | 27046 ft | 434 kts | 91° |
| 2026-04-25 13:55 | 47.91372 | 14.18933 | 27044 ft | 435 kts | 91° |
| 2026-04-25 13:55 | 47.91325 | 14.23436 | 27044 ft | 435 kts | 91° |
| 2026-04-25 13:56 | 47.91275 | 14.27948 | 27045 ft | 435 kts | 91° |
| 2026-04-25 13:56 | 47.91227 | 14.32451 | 27043 ft | 435 kts | 91° |
| 2026-04-25 13:56 | 47.91179 | 14.36962 | 27038 ft | 435 kts | 91° |
| 2026-04-25 13:56 | 47.91128 | 14.41460 | 27039 ft | 435 kts | 91° |
| 2026-04-25 13:57 | 47.91077 | 14.45967 | 27038 ft | 435 kts | 91° |
| 2026-04-25 13:57 | 47.91043 | 14.48962 | 27044 ft | 439 kts | 91° |
| 2026-04-25 13:57 | 47.90971 | 14.55119 | 26844 ft | 445 kts | 91° |
| 2026-04-25 13:57 | 47.90916 | 14.59724 | 26285 ft | 443 kts | 91° |
| 2026-04-25 13:58 | 47.90858 | 14.64302 | 25781 ft | 439 kts | 91° |
| 2026-04-25 13:58 | 47.90797 | 14.68839 | 25286 ft | 436 kts | 91° |
| 2026-04-25 13:58 | 47.90733 | 14.73334 | 24817 ft | 432 kts | 91° |
| 2026-04-25 13:58 | 47.90669 | 14.77795 | 24318 ft | 427 kts | 91° |
| 2026-04-25 13:59 | 47.90607 | 14.82138 | 23522 ft | 421 kts | 91° |
| 2026-04-25 13:59 | 47.90541 | 14.86469 | 22606 ft | 416 kts | 91° |
| 2026-04-25 13:59 | 47.90473 | 14.90724 | 22026 ft | 403 kts | 91° |
| 2026-04-25 13:59 | 47.90407 | 14.94845 | 21589 ft | 395 kts | 91° |
| 2026-04-25 14:00 | 47.90385 | 14.96229 | 21425 ft | 394 kts | 91° |
| 2026-04-25 14:00 | 47.90274 | 15.02997 | 20677 ft | 391 kts | 91° |
| 2026-04-25 14:00 | 47.90205 | 15.07038 | 20230 ft | 390 kts | 91° |
| 2026-04-25 14:00 | 47.90133 | 15.11072 | 19777 ft | 388 kts | 91° |
| 2026-04-25 14:01 | 47.90063 | 15.15090 | 19324 ft | 388 kts | 91° |
| 2026-04-25 14:01 | 47.89992 | 15.19107 | 18881 ft | 387 kts | 90° |
| 2026-04-25 14:01 | 47.89921 | 15.23114 | 18428 ft | 386 kts | 90° |
| 2026-04-25 14:01 | 47.89846 | 15.27124 | 17944 ft | 386 kts | 90° |
| 2026-04-25 14:02 | 47.89770 | 15.31103 | 17505 ft | 383 kts | 91° |
| 2026-04-25 14:02 | 47.89690 | 15.35058 | 17070 ft | 381 kts | 91° |
| 2026-04-25 14:02 | 47.89610 | 15.38989 | 16688 ft | 377 kts | 90° |
| 2026-04-25 14:02 | 47.89584 | 15.40300 | 16560 ft | 376 kts | 90° |
| 2026-04-25 14:03 | 47.89449 | 15.46722 | 15950 ft | 370 kts | 92° |
| 2026-04-25 14:03 | 47.89044 | 15.50487 | 15587 ft | 368 kts | 103° |
| 2026-04-25 14:03 | 47.88430 | 15.54173 | 15222 ft | 366 kts | 103° |
| 2026-04-25 14:03 | 47.87818 | 15.57835 | 14855 ft | 364 kts | 103° |
| 2026-04-25 14:04 | 47.87210 | 15.61481 | 14490 ft | 361 kts | 103° |
| 2026-04-25 14:04 | 47.86606 | 15.65101 | 14140 ft | 359 kts | 103° |
| 2026-04-25 14:04 | 47.86013 | 15.68650 | 13792 ft | 357 kts | 103° |
| 2026-04-25 14:04 | 47.85415 | 15.72218 | 13413 ft | 354 kts | 103° |
| 2026-04-25 14:05 | 47.84821 | 15.75760 | 13053 ft | 351 kts | 103° |
| 2026-04-25 14:05 | 47.84231 | 15.79257 | 12702 ft | 347 kts | 103° |
| 2026-04-25 14:05 | 47.83642 | 15.82721 | 12367 ft | 343 kts | 103° |
| 2026-04-25 14:05 | 47.83057 | 15.86151 | 12028 ft | 340 kts | 103° |
| 2026-04-25 14:06 | 47.82480 | 15.89535 | 11691 ft | 336 kts | 103° |
| 2026-04-25 14:06 | 47.81909 | 15.92894 | 11361 ft | 332 kts | 103° |
| 2026-04-25 14:06 | 47.81343 | 15.96215 | 11034 ft | 330 kts | 103° |
| 2026-04-25 14:06 | 47.80783 | 15.99501 | 10708 ft | 326 kts | 103° |
| 2026-04-25 14:07 | 47.80230 | 16.02730 | 10474 ft | 318 kts | 103° |
| 2026-04-25 14:07 | 47.79683 | 16.05911 | 10120 ft | 316 kts | 103° |
| 2026-04-25 14:07 | 47.79144 | 16.09052 | 9811 ft | 312 kts | 103° |
| 2026-04-25 14:07 | 47.78615 | 16.12124 | 9489 ft | 309 kts | 103° |
| 2026-04-25 14:08 | 47.78085 | 16.15207 | 9147 ft | 306 kts | 103° |
| 2026-04-25 14:08 | 47.77557 | 16.18276 | 8829 ft | 305 kts | 104° |
| 2026-04-25 14:08 | 47.77232 | 16.21364 | 8528 ft | 301 kts | 89° |
| 2026-04-25 14:08 | 47.77447 | 16.24430 | 8229 ft | 298 kts | 74° |
| 2026-04-25 14:09 | 47.78164 | 16.27293 | 7930 ft | 294 kts | 58° |
| 2026-04-25 14:09 | 47.79170 | 16.29928 | 7630 ft | 293 kts | 58° |
| 2026-04-25 14:09 | 47.80171 | 16.32549 | 7380 ft | 287 kts | 58° |
| 2026-04-25 14:09 | 47.80498 | 16.33409 | 7342 ft | 280 kts | 57° |
| 2026-04-25 14:10 | 47.81977 | 16.37324 | 7116 ft | 243 kts | 57° |
| 2026-04-25 14:10 | 47.82774 | 16.39437 | 6966 ft | 228 kts | 56° |
| 2026-04-25 14:10 | 47.83545 | 16.41468 | 6592 ft | 225 kts | 56° |
| 2026-04-25 14:10 | 47.84312 | 16.43483 | 6220 ft | 221 kts | 56° |
| 2026-04-25 14:11 | 47.85052 | 16.45435 | 5935 ft | 212 kts | 57° |
| 2026-04-25 14:11 | 47.85761 | 16.47310 | 5670 ft | 202 kts | 56° |
| 2026-04-25 14:11 | 47.86430 | 16.49082 | 5482 ft | 192 kts | 55° |
| 2026-04-25 14:11 | 47.87076 | 16.50794 | 5300 ft | 188 kts | 55° |
| 2026-04-25 14:12 | 47.87736 | 16.52526 | 5114 ft | 200 kts | 56° |
| 2026-04-25 14:12 | 47.88432 | 16.54348 | 4915 ft | 203 kts | 56° |
| 2026-04-25 14:12 | 47.89128 | 16.56183 | 4696 ft | 203 kts | 56° |
| 2026-04-25 14:12 | 47.89808 | 16.57982 | 4479 ft | 202 kts | 56° |
| 2026-04-25 14:13 | 47.90493 | 16.59797 | 4286 ft | 200 kts | 56° |
| 2026-04-25 14:13 | 47.91177 | 16.61611 | 4091 ft | 200 kts | 56° |
| 2026-04-25 14:13 | 47.91880 | 16.63412 | 3901 ft | 200 kts | 49° |
| 2026-04-25 14:13 | 47.92898 | 16.64716 | 3707 ft | 190 kts | 21° |
| 2026-04-25 14:14 | 47.94130 | 16.65179 | 3500 ft | 177 kts | 359° |
| 2026-04-25 14:14 | 47.95310 | 16.65110 | 3301 ft | 163 kts | 333° |
| 2026-04-25 14:14 | 47.96278 | 16.64326 | 3120 ft | 155 kts | 319° |
| 2026-04-25 14:14 | 47.96926 | 16.63140 | 3036 ft | 143 kts | 302° |
| 2026-04-25 14:15 | 47.97323 | 16.61808 | 3020 ft | 142 kts | 277° |
| 2026-04-25 14:15 | 47.97300 | 16.61309 | 3026 ft | 144 kts | 260° |
| 2026-04-25 14:15 | 47.95969 | 16.59962 | 3018 ft | 159 kts | 180° |
| 2026-04-25 14:15 | 47.94879 | 16.60316 | 3012 ft | 163 kts | 168° |
| 2026-04-25 14:16 | 47.93801 | 16.60850 | 3015 ft | 164 kts | 165° |
| 2026-04-25 14:16 | 47.92728 | 16.61395 | 3011 ft | 162 kts | 165° |
| 2026-04-25 14:16 | 47.91759 | 16.62234 | 3007 ft | 166 kts | 123° |
| 2026-04-25 14:16 | 47.91487 | 16.63852 | 3029 ft | 161 kts | 76° |
| 2026-04-25 14:17 | 47.91998 | 16.65237 | 3020 ft | 149 kts | 33° |
| 2026-04-25 14:17 | 47.92908 | 16.65750 | 3012 ft | 135 kts | 352° |
| 2026-04-25 14:17 | 47.93813 | 16.65456 | 3013 ft | 137 kts | 340° |
| 2026-04-25 14:17 | 47.94732 | 16.65076 | 3019 ft | 137 kts | 338° |
| 2026-04-25 14:18 | 47.95642 | 16.64698 | 3017 ft | 138 kts | 339° |
| 2026-04-25 14:18 | 47.96574 | 16.64309 | 2961 ft | 140 kts | 339° |
| 2026-04-25 14:18 | 47.97506 | 16.63919 | 2838 ft | 139 kts | 338° |
| 2026-04-25 14:18 | 47.98435 | 16.63528 | 2693 ft | 139 kts | 340° |
| 2026-04-25 14:19 | 47.99360 | 16.63140 | 2499 ft | 138 kts | 340° |
| 2026-04-25 14:19 | 48.00275 | 16.62755 | 2327 ft | 136 kts | 340° |
| 2026-04-25 14:19 | 48.01196 | 16.62367 | 2144 ft | 138 kts | 340° |
| 2026-04-25 14:19 | 48.02118 | 16.61979 | 1969 ft | 137 kts | 340° |
| 2026-04-25 14:20 | 48.03026 | 16.61597 | 1787 ft | 135 kts | 339° |
| 2026-04-25 14:20 | 48.03322 | 16.61472 | 1727 ft | 136 kts | 340° |
| 2026-04-25 14:20 | 48.04857 | 16.60825 | 1425 ft | 138 kts | 338° |
| 2026-04-25 14:20 | 48.05789 | 16.60431 | 1253 ft | 139 kts | 339° |
| 2026-04-25 14:21 | 48.06705 | 16.60045 | 1067 ft | 139 kts | 339° |
| 2026-04-25 14:21 | 48.07632 | 16.59654 | 910 ft | 135 kts | 336° |
| 2026-04-25 14:21 | 48.08539 | 16.59274 | 718 ft | 135 kts | 338° |
| 2026-04-25 14:21 | 48.09425 | 16.58898 | 626 ft | 124 kts | 338° |
| 2026-04-25 14:22 | 48.10108 | 16.58587 | 624 ft | 79 kts | 346° |
| 2026-04-25 14:22 | 48.10468 | 16.58451 | 606 ft | 44 kts | 344° |
| 2026-04-25 14:22 | 48.10732 | 16.58309 | 613 ft | 32 kts | 322° |
| 2026-04-25 14:22 | 48.10861 | 16.58087 | 610 ft | 28 kts | 313° |
| 2026-04-25 14:23 | 48.10989 | 16.57881 | 618 ft | 26 kts | 313° |
| 2026-04-25 14:23 | 48.11147 | 16.57753 | 620 ft | 27 kts | 343° |
| 2026-04-25 14:23 | 48.11330 | 16.57672 | 610 ft | 28 kts | 345° |
| 2026-04-25 14:23 | 48.11512 | 16.57587 | 609 ft | 27 kts | 332° |
| 2026-04-25 14:24 | 48.11647 | 16.57408 | 610 ft | 24 kts | 344° |
| 2026-04-25 14:24 | 48.11809 | 16.57338 | 603 ft | 19 kts | 330° |
| 2026-04-25 14:24 | 48.11853 | 16.57206 | 602 ft | 15 kts | 274° |
| 2026-04-25 14:24 | 48.11841 | 16.57068 | 602 ft | 13 kts | 211° |
| 2026-04-25 14:25 | 48.11818 | 16.57053 | 602 ft | 0 kts | 206° |